createdAt,value
2019-02-18T00:00:04.433Z,8.36
2019-02-18T00:01:04.393Z,8.36
2019-02-18T00:02:04.350Z,8.36
2019-02-18T00:03:04.314Z,8.42
2019-02-18T00:04:04.271Z,8.49
2019-02-18T00:05:04.228Z,8.51
2019-02-18T00:06:04.187Z,8.49
2019-02-18T00:07:13.784Z,8.48
2019-02-18T00:08:04.111Z,8.49
2019-02-18T00:09:04.071Z,8.49
2019-02-18T00:10:04.028Z,8.60
2019-02-18T00:11:03.992Z,8.51
2019-02-18T00:12:03.946Z,8.53
2019-02-18T00:13:03.906Z,8.45
2019-02-18T00:14:03.868Z,8.36
2019-02-18T00:15:03.835Z,8.33
2019-02-18T00:16:03.794Z,8.28
2019-02-18T00:17:03.745Z,8.24
2019-02-18T00:18:03.709Z,8.23
2019-02-18T00:19:03.665Z,8.23
2019-02-18T00:20:03.631Z,8.26
2019-02-18T00:21:03.589Z,8.20
2019-02-18T00:22:03.551Z,8.20
2019-02-18T00:23:03.513Z,8.15
2019-02-18T00:24:03.462Z,8.19
2019-02-18T00:25:03.424Z,8.18
2019-02-18T00:26:03.382Z,8.18
2019-02-18T00:27:03.340Z,8.20
2019-02-18T00:28:03.307Z,8.19
2019-02-18T00:29:03.265Z,8.23
2019-02-18T00:30:03.223Z,8.24
2019-02-18T00:31:03.179Z,8.23
2019-02-18T00:32:03.151Z,8.19
2019-02-18T00:33:03.104Z,8.26
2019-02-18T00:34:03.067Z,8.20
2019-02-18T00:35:03.025Z,8.26
2019-02-18T00:36:02.979Z,8.28
2019-02-18T00:37:02.944Z,8.23
2019-02-18T00:38:02.901Z,8.27
2019-02-18T00:39:02.858Z,8.24
2019-02-18T00:40:02.824Z,8.27
2019-02-18T00:41:02.781Z,8.28
2019-02-18T00:42:02.741Z,8.31
2019-02-18T00:43:02.721Z,8.36
2019-02-18T00:44:02.659Z,8.36
2019-02-18T00:45:02.616Z,8.34
2019-02-18T00:46:02.579Z,8.37
2019-02-18T00:47:02.540Z,8.46
2019-02-18T00:48:02.493Z,8.49
2019-02-18T00:49:02.454Z,8.33
2019-02-18T00:50:02.415Z,8.48
2019-02-18T00:51:02.372Z,8.51
2019-02-18T00:52:02.337Z,8.51
2019-02-18T00:53:03.987Z,8.53
2019-02-18T00:54:02.258Z,8.53
2019-02-18T00:55:02.218Z,8.55
2019-02-18T00:56:02.170Z,8.60
2019-02-18T00:57:02.162Z,8.51
2019-02-18T00:58:02.097Z,8.58
2019-02-18T00:59:02.051Z,8.60
2019-02-18T01:00:02.018Z,8.58
2019-02-18T01:01:01.974Z,8.53
2019-02-18T01:02:01.934Z,8.60
2019-02-18T01:03:01.891Z,8.45
2019-02-18T01:04:01.856Z,8.53
2019-02-18T01:05:01.813Z,8.48
2019-02-18T01:06:01.776Z,8.45
2019-02-18T01:07:01.732Z,8.38
2019-02-18T01:08:01.690Z,8.34
2019-02-18T01:09:01.649Z,8.33
2019-02-18T01:10:01.616Z,8.20
2019-02-18T01:11:01.568Z,8.12
2019-02-18T01:12:01.531Z,8.09
2019-02-18T01:13:01.489Z,8.01
2019-02-18T01:14:01.449Z,7.82
2019-02-18T01:15:01.412Z,7.82
2019-02-18T01:16:01.364Z,7.77
2019-02-18T01:17:01.326Z,7.72
2019-02-18T01:18:01.288Z,7.73
2019-02-18T01:19:01.249Z,7.73
2019-02-18T01:20:01.203Z,7.72
2019-02-18T01:21:01.166Z,7.67
2019-02-18T01:22:01.125Z,7.67
2019-02-18T01:23:01.086Z,7.72
2019-02-18T01:24:01.047Z,7.82
2019-02-18T01:25:01.006Z,7.82
2019-02-18T01:26:00.963Z,7.80
2019-02-18T01:27:00.925Z,7.79
2019-02-18T01:28:00.877Z,7.80
2019-02-18T01:29:00.841Z,7.83
2019-02-18T01:30:00.840Z,7.90
2019-02-18T01:31:00.755Z,7.95
2019-02-18T01:32:00.719Z,8.05
2019-02-18T01:33:00.678Z,8.03
2019-02-18T01:34:00.636Z,8.06
2019-02-18T01:35:00.592Z,8.08
2019-02-18T01:36:00.557Z,8.05
2019-02-18T01:37:00.516Z,7.93
2019-02-18T01:38:00.479Z,7.95
2019-02-18T01:39:00.439Z,7.90
2019-02-18T01:40:00.390Z,7.79
2019-02-18T01:41:00.354Z,7.67
2019-02-18T01:42:00.312Z,7.67
2019-02-18T01:43:00.269Z,7.69
2019-02-18T01:44:00.234Z,7.66
2019-02-18T01:45:00.319Z,7.73
2019-02-18T01:46:00.171Z,7.72
2019-02-18T01:47:00.111Z,7.67
2019-02-18T01:48:00.070Z,7.73
2019-02-18T01:49:00.028Z,7.75
2019-02-18T01:49:59.991Z,7.67
2019-02-18T01:50:59.950Z,7.66
2019-02-18T01:51:59.910Z,7.63
2019-02-18T01:52:59.864Z,7.60
2019-02-18T01:53:59.825Z,7.67
2019-02-18T01:54:59.781Z,7.60
2019-02-18T01:55:59.746Z,7.67
2019-02-18T01:56:59.705Z,7.58
2019-02-18T01:57:59.666Z,7.57
2019-02-18T01:58:59.626Z,7.61
2019-02-18T01:59:59.582Z,7.57
2019-02-18T02:00:59.541Z,7.67
2019-02-18T02:01:59.501Z,7.69
2019-02-18T02:02:59.456Z,7.83
2019-02-18T02:03:59.423Z,7.80
2019-02-18T02:04:59.376Z,7.85
2019-02-18T02:05:59.336Z,7.80
2019-02-18T02:06:59.292Z,7.82
2019-02-18T02:07:59.258Z,7.82
2019-02-18T02:08:59.217Z,7.77
2019-02-18T02:09:59.180Z,7.80
2019-02-18T02:10:59.138Z,7.70
2019-02-18T02:11:59.089Z,7.72
2019-02-18T02:12:59.049Z,7.66
2019-02-18T02:13:59.010Z,7.83
2019-02-18T02:14:58.965Z,7.80
2019-02-18T02:15:58.931Z,7.76
2019-02-18T02:16:58.892Z,7.80
2019-02-18T02:17:58.848Z,7.82
2019-02-18T02:18:58.809Z,7.80
2019-02-18T02:19:58.762Z,7.76
2019-02-18T02:20:58.724Z,7.76
2019-02-18T02:21:58.690Z,7.76
2019-02-18T02:22:58.647Z,7.85
2019-02-18T02:23:58.603Z,7.72
2019-02-18T02:24:58.566Z,7.80
2019-02-18T02:25:58.520Z,7.75
2019-02-18T02:26:58.478Z,7.75
2019-02-18T02:27:58.443Z,7.73
2019-02-18T02:28:58.400Z,7.63
2019-02-18T02:29:58.363Z,7.58
2019-02-18T02:31:00.819Z,7.61
2019-02-18T02:31:58.277Z,7.57
2019-02-18T02:32:58.239Z,7.56
2019-02-18T02:33:58.196Z,7.60
2019-02-18T02:34:58.151Z,7.57
2019-02-18T02:35:58.120Z,7.57
2019-02-18T02:36:58.078Z,7.53
2019-02-18T02:38:07.291Z,7.61
2019-02-18T02:38:57.989Z,7.66
2019-02-18T02:39:57.956Z,7.58
2019-02-18T02:40:57.911Z,7.57
2019-02-18T02:41:57.873Z,7.66
2019-02-18T02:42:57.831Z,7.56
2019-02-18T02:43:57.786Z,7.53
2019-02-18T02:44:57.747Z,7.48
2019-02-18T02:45:57.705Z,7.51
2019-02-18T02:46:57.673Z,7.45
2019-02-18T02:47:57.625Z,7.40
2019-02-18T02:48:57.588Z,7.32
2019-02-18T02:49:57.550Z,7.25
2019-02-18T02:50:57.502Z,7.13
2019-02-18T02:51:57.481Z,7.20
2019-02-18T02:52:57.420Z,7.23
2019-02-18T02:53:57.382Z,7.23
2019-02-18T02:54:57.338Z,7.24
2019-02-18T02:55:57.296Z,7.29
2019-02-18T02:56:57.256Z,7.20
2019-02-18T02:57:57.214Z,7.23
2019-02-18T02:58:57.173Z,7.23
2019-02-18T02:59:57.136Z,7.24
2019-02-18T03:00:57.095Z,7.20
2019-02-18T03:01:57.056Z,7.10
2019-02-18T03:02:57.011Z,7.07
2019-02-18T03:03:56.969Z,7.17
2019-02-18T03:04:56.932Z,7.07
2019-02-18T03:05:56.886Z,7.13
2019-02-18T03:06:56.847Z,7.28
2019-02-18T03:07:56.810Z,7.17
2019-02-18T03:08:56.774Z,7.23
2019-02-18T03:09:56.726Z,7.17
2019-02-18T03:10:56.686Z,7.31
2019-02-18T03:11:56.644Z,7.25
2019-02-18T03:12:56.606Z,7.21
2019-02-18T03:13:56.577Z,7.17
2019-02-18T03:14:56.574Z,7.32
2019-02-18T03:15:56.481Z,7.29
2019-02-18T03:16:56.443Z,7.28
2019-02-18T03:17:56.396Z,7.15
2019-02-18T03:18:56.354Z,7.28
2019-02-18T03:19:56.316Z,7.24
2019-02-18T03:20:56.276Z,7.21
2019-02-18T03:21:56.235Z,7.05
2019-02-18T03:22:56.194Z,7.10
2019-02-18T03:23:56.150Z,7.02
2019-02-18T03:24:56.110Z,7.10
2019-02-18T03:25:56.074Z,7.00
2019-02-18T03:26:56.029Z,7.06
2019-02-18T03:27:55.987Z,7.05
2019-02-18T03:28:55.947Z,7.06
2019-02-18T03:29:55.902Z,7.05
2019-02-18T03:30:55.869Z,7.11
2019-02-18T03:31:55.826Z,7.18
2019-02-18T03:32:55.787Z,7.14
2019-02-18T03:33:55.746Z,7.25
2019-02-18T03:34:55.713Z,7.21
2019-02-18T03:35:55.657Z,7.18
2019-02-18T03:36:55.614Z,7.21
2019-02-18T03:37:55.573Z,7.18
2019-02-18T03:38:55.535Z,7.28
2019-02-18T03:39:55.493Z,7.18
2019-02-18T03:41:02.764Z,7.32
2019-02-18T03:41:55.408Z,7.18
2019-02-18T03:42:55.369Z,7.28
2019-02-18T03:43:55.330Z,7.24
2019-02-18T03:44:55.291Z,7.18
2019-02-18T03:45:55.249Z,7.15
2019-02-18T03:46:55.206Z,7.15
2019-02-18T03:47:55.162Z,7.25
2019-02-18T03:48:55.119Z,7.17
2019-02-18T03:49:55.080Z,7.20
2019-02-18T04:06:00.758Z,7.02
2019-02-18T04:07:00.687Z,7.05
2019-02-18T04:08:00.645Z,7.06
2019-02-18T04:09:00.601Z,7.00
2019-02-18T04:10:00.576Z,7.03
2019-02-18T04:11:00.514Z,7.11
2019-02-18T04:12:00.469Z,6.97
2019-02-18T04:13:00.422Z,7.05
2019-02-18T04:14:00.380Z,7.10
2019-02-18T04:15:00.503Z,7.06
2019-02-18T04:16:00.295Z,7.02
2019-02-18T04:17:00.255Z,7.03
2019-02-18T04:18:00.250Z,7.05
2019-02-18T04:19:00.167Z,7.02
2019-02-18T04:20:00.127Z,7.00
2019-02-18T04:21:00.084Z,7.06
2019-02-18T04:22:00.044Z,7.07
2019-02-18T04:23:00.004Z,7.05
2019-02-18T04:23:59.965Z,7.03
2019-02-18T04:24:59.915Z,7.10
2019-02-18T04:25:59.873Z,7.06
2019-02-18T04:26:59.831Z,7.06
2019-02-18T04:27:59.791Z,7.06
2019-02-18T04:28:59.754Z,7.03
2019-02-18T04:29:59.711Z,7.06
2019-02-18T04:30:59.667Z,7.07
2019-02-18T04:31:59.625Z,7.05
2019-02-18T04:32:59.584Z,7.07
2019-02-18T04:33:59.540Z,7.03
2019-02-18T04:34:59.501Z,7.07
2019-02-18T04:35:59.458Z,7.10
2019-02-18T04:36:59.414Z,7.05
2019-02-18T04:37:59.370Z,7.07
2019-02-18T04:38:59.329Z,7.06
2019-02-18T04:39:59.291Z,7.06
2019-02-18T04:40:59.254Z,7.03
2019-02-18T04:41:59.217Z,7.06
2019-02-18T04:42:59.172Z,7.00
2019-02-18T04:43:59.136Z,7.00
2019-02-18T04:44:59.084Z,7.00
2019-02-18T04:45:59.041Z,6.96
2019-02-18T04:46:58.998Z,7.03
2019-02-18T04:47:58.965Z,6.92
2019-02-18T04:48:58.919Z,6.93
2019-02-18T04:49:58.880Z,6.92
2019-02-18T04:50:58.832Z,6.88
2019-02-18T04:51:58.793Z,6.87
2019-02-18T04:52:58.767Z,6.87
2019-02-18T04:53:58.714Z,6.82
2019-02-18T04:54:58.672Z,6.79
2019-02-18T04:55:58.629Z,6.75
2019-02-18T04:56:58.586Z,6.66
2019-02-18T04:57:58.544Z,6.67
2019-02-18T04:58:58.500Z,6.82
2019-02-18T04:59:58.471Z,6.74
2019-02-18T05:00:58.424Z,6.69
2019-02-18T05:01:58.384Z,6.67
2019-02-18T05:02:58.345Z,6.75
2019-02-18T05:03:58.301Z,6.74
2019-02-18T05:04:58.256Z,6.66
2019-02-18T05:05:58.218Z,6.66
2019-02-18T05:06:58.176Z,6.78
2019-02-18T05:07:58.133Z,6.69
2019-02-18T05:09:05.096Z,6.74
2019-02-18T05:09:58.047Z,6.67
2019-02-18T05:10:58.006Z,6.70
2019-02-18T05:11:57.966Z,6.70
2019-02-18T05:12:57.927Z,6.74
2019-02-18T05:13:57.887Z,6.70
2019-02-18T05:14:57.846Z,6.63
2019-02-18T05:15:57.801Z,6.69
2019-02-18T05:16:57.761Z,6.70
2019-02-18T05:17:57.719Z,6.67
2019-02-18T05:18:57.675Z,6.56
2019-02-18T05:19:57.635Z,6.62
2019-02-18T05:20:57.612Z,6.56
2019-02-18T05:21:57.563Z,6.56
2019-02-18T05:22:57.508Z,6.60
2019-02-18T05:23:57.469Z,6.63
2019-02-18T05:24:57.435Z,6.70
2019-02-18T05:25:57.393Z,6.67
2019-02-18T05:26:57.353Z,6.70
2019-02-18T05:27:57.306Z,6.72
2019-02-18T05:28:57.261Z,6.70
2019-02-18T05:29:57.219Z,6.69
2019-02-18T05:30:57.178Z,6.67
2019-02-18T05:31:57.150Z,6.82
2019-02-18T05:32:57.100Z,6.79
2019-02-18T05:33:57.059Z,6.75
2019-02-18T05:34:57.017Z,6.87
2019-02-18T05:35:56.977Z,6.82
2019-02-18T05:36:56.932Z,6.85
2019-02-18T05:37:56.975Z,6.78
2019-02-18T05:38:56.852Z,6.87
2019-02-18T05:39:56.811Z,6.85
2019-02-18T05:40:56.764Z,6.79
2019-02-18T05:41:56.724Z,6.79
2019-02-18T05:42:56.685Z,6.81
2019-02-18T05:43:56.646Z,6.85
2019-02-18T05:44:56.601Z,6.81
2019-02-18T05:45:56.564Z,6.85
2019-02-18T05:46:56.522Z,6.84
2019-02-18T05:47:56.479Z,6.77
2019-02-18T05:48:56.437Z,6.74
2019-02-18T05:49:56.391Z,6.77
2019-02-18T05:50:56.349Z,6.66
2019-02-18T05:51:56.310Z,6.63
2019-02-18T05:52:56.270Z,6.67
2019-02-18T05:53:56.231Z,6.57
2019-02-18T05:54:56.184Z,6.56
2019-02-18T05:55:56.145Z,6.59
2019-02-18T05:56:56.107Z,6.56
2019-02-18T05:57:56.067Z,6.49
2019-02-18T05:58:56.023Z,6.42
2019-02-18T05:59:55.979Z,6.42
2019-02-18T06:00:55.946Z,6.46
2019-02-18T06:01:55.894Z,6.38
2019-02-18T06:02:55.852Z,6.42
2019-02-18T06:03:55.812Z,6.35
2019-02-18T06:04:55.857Z,6.33
2019-02-18T06:05:55.735Z,6.36
2019-02-18T06:06:55.691Z,6.33
2019-02-18T06:07:55.649Z,6.27
2019-02-18T06:08:55.605Z,6.26
2019-02-18T06:09:55.563Z,6.28
2019-02-18T06:10:55.526Z,6.24
2019-02-18T06:11:55.483Z,6.26
2019-02-18T06:12:55.439Z,6.19
2019-02-18T06:13:55.395Z,6.17
2019-02-18T06:14:55.352Z,6.20
2019-02-18T06:15:55.314Z,6.19
2019-02-18T06:16:55.274Z,6.17
2019-02-18T06:17:55.235Z,6.17
2019-02-18T06:18:55.198Z,6.24
2019-02-18T06:19:55.150Z,6.14
2019-02-18T06:20:55.105Z,6.14
2019-02-18T06:21:55.063Z,6.14
2019-02-18T06:22:55.020Z,6.19
2019-02-18T06:23:54.999Z,6.12
2019-02-18T06:24:54.944Z,6.12
2019-02-18T06:25:54.907Z,6.17
2019-02-18T06:26:54.856Z,6.17
2019-02-18T06:27:54.814Z,6.20
2019-02-18T06:28:54.775Z,6.20
2019-02-18T06:29:54.737Z,6.22
2019-02-18T06:30:55.060Z,6.12
2019-02-18T06:31:54.650Z,6.20
2019-02-18T06:32:54.617Z,6.14
2019-02-18T06:33:54.563Z,6.16
2019-02-18T06:34:54.538Z,6.16
2019-02-18T06:35:54.483Z,6.09
2019-02-18T06:36:54.443Z,6.14
2019-02-18T06:37:54.404Z,6.11
2019-02-18T06:38:54.361Z,6.12
2019-02-18T06:39:54.320Z,6.12
2019-02-18T06:40:54.274Z,6.14
2019-02-18T06:41:54.234Z,6.17
2019-02-18T06:42:54.195Z,6.17
2019-02-18T06:43:54.151Z,6.24
2019-02-18T06:44:54.108Z,6.17
2019-02-18T06:45:54.065Z,6.22
2019-02-18T06:46:54.021Z,6.14
2019-02-18T06:47:53.982Z,6.17
2019-02-18T06:48:53.943Z,6.24
2019-02-18T06:49:53.903Z,6.14
2019-02-18T06:50:53.862Z,6.11
2019-02-18T06:51:53.818Z,6.26
2019-02-18T06:52:53.775Z,6.28
2019-02-18T06:53:53.731Z,6.27
2019-02-18T06:54:53.688Z,6.30
2019-02-18T06:55:53.650Z,6.28
2019-02-18T06:56:53.611Z,6.31
2019-02-18T06:57:53.571Z,6.31
2019-02-18T06:58:53.522Z,6.33
2019-02-18T06:59:53.494Z,6.36
2019-02-18T07:00:53.445Z,6.31
2019-02-18T07:01:53.404Z,6.35
2019-02-18T07:02:53.364Z,6.33
2019-02-18T07:03:53.319Z,6.42
2019-02-18T07:04:53.276Z,6.42
2019-02-18T07:05:53.232Z,6.45
2019-02-18T07:06:53.195Z,6.41
2019-02-18T07:07:53.152Z,6.46
2019-02-18T07:08:53.110Z,6.51
2019-02-18T07:09:53.065Z,6.52
2019-02-18T07:10:53.028Z,6.57
2019-02-18T07:11:52.984Z,6.57
2019-02-18T07:12:52.944Z,6.51
2019-02-18T07:13:52.906Z,6.56
2019-02-18T07:14:52.857Z,6.66
2019-02-18T07:15:52.817Z,6.66
2019-02-18T07:16:52.780Z,6.72
2019-02-18T07:17:52.740Z,6.63
2019-02-18T07:18:52.698Z,6.72
2019-02-18T07:19:52.653Z,6.78
2019-02-18T07:20:52.610Z,6.79
2019-02-18T07:21:52.567Z,6.84
2019-02-18T07:22:52.535Z,6.85
2019-02-18T07:23:52.486Z,6.89
2019-02-18T07:24:52.447Z,6.88
2019-02-18T07:25:52.408Z,6.79
2019-02-18T07:26:52.366Z,6.96
2019-02-18T07:27:52.327Z,6.92
2019-02-18T07:28:52.279Z,6.97
2019-02-18T07:29:52.237Z,6.99
2019-02-18T07:30:52.200Z,7.07
2019-02-18T07:31:52.160Z,7.02
2019-02-18T07:32:52.114Z,7.00
2019-02-18T07:33:52.074Z,7.10
2019-02-18T07:34:52.028Z,7.07
2019-02-18T07:35:51.990Z,7.07
2019-02-18T07:36:51.951Z,7.11
2019-02-18T07:37:51.912Z,7.13
2019-02-18T07:38:51.870Z,7.14
2019-02-18T07:40:00.845Z,7.14
2019-02-18T07:40:51.789Z,7.20
2019-02-18T07:41:51.739Z,7.23
2019-02-18T07:42:51.698Z,7.18
2019-02-18T07:43:51.659Z,7.23
2019-02-18T07:44:51.620Z,7.25
2019-02-18T07:45:51.582Z,7.21
2019-02-18T07:46:51.533Z,7.29
2019-02-18T07:47:51.492Z,7.24
2019-02-18T07:48:51.455Z,7.28
2019-02-18T07:49:51.419Z,7.28
2019-02-18T07:50:51.375Z,7.28
2019-02-18T07:51:51.331Z,7.31
2019-02-18T07:52:51.292Z,7.32
2019-02-18T07:53:51.246Z,7.36
2019-02-18T07:54:51.207Z,7.33
2019-02-18T07:55:51.165Z,7.33
2019-02-18T07:56:51.126Z,7.39
2019-02-18T07:57:51.091Z,7.45
2019-02-18T07:58:51.048Z,7.48
2019-02-18T07:59:51.003Z,7.50
2019-02-18T08:00:50.962Z,7.60
2019-02-18T08:01:50.922Z,7.60
2019-02-18T08:02:50.881Z,7.58
2019-02-18T08:03:50.840Z,7.66
2019-02-18T08:04:50.795Z,7.72
2019-02-18T08:05:50.754Z,7.67
2019-02-18T08:06:50.711Z,7.83
2019-02-18T08:07:50.673Z,7.79
2019-02-18T08:08:50.699Z,7.88
2019-02-18T08:09:50.595Z,7.88
2019-02-18T08:10:50.555Z,7.94
2019-02-18T08:11:50.510Z,8.03
2019-02-18T08:12:50.471Z,8.10
2019-02-18T08:13:50.426Z,8.03
2019-02-18T08:14:50.387Z,8.16
2019-02-18T08:15:50.345Z,8.24
2019-02-18T08:16:50.308Z,8.18
2019-02-18T08:17:50.272Z,8.30
2019-02-18T08:18:50.219Z,8.36
2019-02-18T08:19:50.181Z,8.44
2019-02-18T08:20:50.144Z,8.46
2019-02-18T08:21:50.106Z,8.56
2019-02-18T08:22:50.068Z,8.60
2019-02-18T08:23:59.377Z,8.69
2019-02-18T08:24:49.979Z,8.66
2019-02-18T08:25:49.936Z,8.71
2019-02-18T08:26:49.897Z,8.81
2019-02-18T08:27:49.856Z,8.73
2019-02-18T08:28:49.820Z,8.81
2019-02-18T08:29:49.781Z,8.84
2019-02-18T08:30:49.739Z,8.82
2019-02-18T08:31:49.695Z,8.92
2019-02-18T08:32:49.655Z,8.89
2019-02-18T08:33:49.611Z,8.89
2019-02-18T08:34:49.577Z,8.88
2019-02-18T08:35:49.534Z,8.94
2019-02-18T08:36:49.493Z,9.03
2019-02-18T08:37:49.450Z,9.04
2019-02-18T08:38:49.414Z,9.13
2019-02-18T08:39:49.370Z,9.08
2019-02-18T08:40:49.335Z,9.16
2019-02-18T08:41:49.298Z,9.25
2019-02-18T08:42:49.253Z,9.34
2019-02-18T08:43:49.210Z,9.40
2019-02-18T08:44:49.169Z,9.40
2019-02-18T08:45:49.128Z,9.46
2019-02-18T08:46:49.091Z,9.54
2019-02-18T08:47:49.048Z,9.55
2019-02-18T08:48:49.012Z,9.62
2019-02-18T08:49:48.973Z,9.68
2019-02-18T08:50:48.928Z,9.77
2019-02-18T08:51:48.888Z,9.92
2019-02-18T08:52:48.851Z,9.91
2019-02-18T08:53:48.812Z,9.98
2019-02-18T08:54:56.372Z,10.09
2019-02-18T08:55:48.729Z,10.04
2019-02-18T08:56:48.687Z,10.22
2019-02-18T08:57:48.645Z,10.23
2019-02-18T08:58:48.610Z,10.26
2019-02-18T08:59:48.567Z,10.31
2019-02-18T09:00:48.530Z,10.46
2019-02-18T09:01:48.491Z,10.57
2019-02-18T09:02:48.452Z,10.56
2019-02-18T09:03:48.409Z,10.74
2019-02-18T09:04:48.367Z,10.67
2019-02-18T09:05:48.327Z,10.75
2019-02-18T09:06:48.292Z,10.81
2019-02-18T09:07:48.255Z,10.89
2019-02-18T09:08:48.212Z,10.82
2019-02-18T09:09:48.170Z,10.82
2019-02-18T09:10:48.127Z,10.84
2019-02-18T09:11:48.090Z,10.97
2019-02-18T09:12:48.053Z,10.96
2019-02-18T09:13:48.021Z,11.07
2019-02-18T09:14:47.975Z,11.11
2019-02-18T09:15:47.934Z,11.12
2019-02-18T09:16:47.892Z,11.12
2019-02-18T09:17:47.853Z,11.26
2019-02-18T09:18:47.811Z,11.44
2019-02-18T09:19:47.774Z,11.54
2019-02-18T09:20:47.739Z,11.63
2019-02-18T09:21:47.700Z,11.68
2019-02-18T09:22:47.655Z,11.81
2019-02-18T09:23:47.620Z,11.84
2019-02-18T09:24:47.579Z,12.00
2019-02-18T09:25:47.543Z,11.97
2019-02-18T09:26:47.503Z,12.00
2019-02-18T09:27:47.463Z,11.99
2019-02-18T09:28:47.424Z,12.07
2019-02-18T09:29:47.381Z,11.99
2019-02-18T09:30:47.341Z,12.18
2019-02-18T09:31:47.306Z,12.18
2019-02-18T09:32:47.267Z,12.28
2019-02-18T09:33:47.230Z,12.32
2019-02-18T09:34:47.190Z,12.32
2019-02-18T09:35:47.151Z,12.27
2019-02-18T09:36:47.114Z,12.28
2019-02-18T09:37:47.108Z,12.39
2019-02-18T09:38:47.036Z,12.43
2019-02-18T09:39:46.996Z,12.43
2019-02-18T09:40:51.203Z,12.42
2019-02-18T09:41:46.914Z,12.43
2019-02-18T09:42:46.876Z,12.61
2019-02-18T09:43:46.841Z,12.79
2019-02-18T09:44:46.803Z,12.78
2019-02-18T09:45:46.766Z,12.83
2019-02-18T09:46:46.727Z,12.93
2019-02-18T09:47:46.686Z,12.94
2019-02-18T09:48:46.651Z,12.90
2019-02-18T09:49:46.607Z,13.15
2019-02-18T09:50:46.567Z,13.16
2019-02-18T09:51:46.535Z,13.18
2019-02-18T09:52:46.495Z,13.16
2019-02-18T09:53:46.459Z,13.15
2019-02-18T09:54:46.414Z,13.15
2019-02-18T09:55:46.378Z,13.18
2019-02-18T09:56:46.342Z,13.31
2019-02-18T09:57:46.309Z,13.30
2019-02-18T09:58:46.266Z,13.28
2019-02-18T09:59:46.227Z,13.33
2019-02-18T10:00:46.188Z,13.42
2019-02-18T10:01:46.148Z,13.49
2019-02-18T10:02:46.108Z,13.56
2019-02-18T10:03:46.071Z,13.47
2019-02-18T10:04:46.036Z,13.50
2019-02-18T10:19:42.887Z,13.83
2019-02-18T10:20:40.405Z,13.86
2019-02-18T10:21:40.358Z,13.79
2019-02-18T10:22:40.318Z,13.79
2019-02-18T10:23:40.277Z,13.95
2019-02-18T10:24:50.499Z,13.93
2019-02-18T10:25:40.202Z,13.92
2019-02-18T10:26:40.158Z,14.04
2019-02-18T10:27:40.116Z,14.07
2019-02-18T10:28:40.074Z,14.05
2019-02-18T10:29:40.033Z,14.23
2019-02-18T10:30:40.003Z,14.15
2019-02-18T10:31:39.961Z,14.12
2019-02-18T10:32:39.923Z,14.12
2019-02-18T10:33:39.877Z,13.89
2019-02-18T10:34:39.843Z,13.81
2019-02-18T10:35:39.804Z,13.70
2019-02-18T10:36:39.767Z,13.74
2019-02-18T10:37:39.729Z,13.67
2019-02-18T10:38:40.252Z,13.67
2019-02-18T10:39:39.653Z,13.71
2019-02-18T10:40:39.610Z,13.81
2019-02-18T10:41:39.569Z,13.90
2019-02-18T10:42:39.535Z,13.89
2019-02-18T10:43:39.495Z,13.81
2019-02-18T10:44:39.462Z,13.81
2019-02-18T10:45:39.426Z,13.77
2019-02-18T10:46:40.659Z,13.85
2019-02-18T10:47:39.345Z,13.85
2019-02-18T10:48:39.311Z,13.85
2019-02-18T10:49:39.272Z,13.92
2019-02-18T10:50:39.235Z,14.05
2019-02-18T10:51:39.197Z,14.11
2019-02-18T10:52:39.157Z,14.10
2019-02-18T10:53:39.116Z,14.28
2019-02-18T10:54:39.079Z,14.41
2019-02-18T10:55:39.044Z,14.51
2019-02-18T10:56:39.010Z,14.59
2019-02-18T10:57:38.975Z,14.72
2019-02-18T10:58:38.935Z,14.62
2019-02-18T10:59:38.894Z,14.65
2019-02-18T11:00:38.858Z,14.63
2019-02-18T11:01:38.817Z,14.63
2019-02-18T11:02:38.787Z,14.72
2019-02-18T11:03:38.746Z,14.72
2019-02-18T11:04:38.711Z,14.59
2019-02-18T11:05:38.669Z,14.68
2019-02-18T11:06:38.635Z,14.72
2019-02-18T11:07:38.597Z,14.63
2019-02-18T11:08:38.564Z,14.69
2019-02-18T11:09:38.526Z,14.65
2019-02-18T11:10:38.483Z,14.66
2019-02-18T11:11:38.448Z,14.54
2019-02-18T11:12:38.414Z,14.54
2019-02-18T11:13:38.378Z,14.50
2019-02-18T11:14:38.342Z,14.50
2019-02-18T11:15:38.301Z,14.48
2019-02-18T11:16:38.267Z,14.59
2019-02-18T11:17:39.125Z,14.68
2019-02-18T11:18:38.195Z,14.73
2019-02-18T11:19:38.155Z,14.79
2019-02-18T11:20:38.117Z,14.91
2019-02-18T11:21:38.079Z,14.73
2019-02-18T11:22:38.045Z,14.77
2019-02-18T11:23:38.004Z,14.78
2019-02-18T11:24:37.970Z,14.86
2019-02-18T11:25:37.935Z,14.94
2019-02-18T11:26:37.900Z,15.03
2019-02-18T11:27:37.860Z,15.09
2019-02-18T11:28:37.820Z,15.11
2019-02-18T11:29:37.783Z,15.10
2019-02-18T11:30:39.177Z,15.22
2019-02-18T11:31:37.710Z,15.21
2019-02-18T11:32:37.677Z,15.24
2019-02-18T11:33:37.642Z,15.40
2019-02-18T11:34:37.599Z,15.44
2019-02-18T11:35:37.564Z,15.43
2019-02-18T11:36:37.530Z,15.39
2019-02-18T11:37:37.495Z,15.47
2019-02-18T11:38:37.459Z,15.40
2019-02-18T11:39:37.421Z,15.39
2019-02-18T11:40:37.381Z,15.42
2019-02-18T11:41:37.351Z,15.37
2019-02-18T11:42:37.624Z,15.22
2019-02-18T11:43:37.272Z,15.36
2019-02-18T11:44:37.238Z,15.24
2019-02-18T11:45:37.203Z,15.31
2019-02-18T11:46:37.168Z,15.35
2019-02-18T11:47:37.128Z,15.25
2019-02-18T11:48:37.092Z,15.21
2019-02-18T11:49:37.053Z,15.35
2019-02-18T11:50:37.021Z,15.27
2019-02-18T11:51:36.985Z,15.33
2019-02-18T11:52:36.944Z,15.24
2019-02-18T11:53:36.909Z,15.22
2019-02-18T11:54:36.872Z,15.22
2019-02-18T11:55:38.919Z,15.14
2019-02-18T11:56:36.801Z,15.09
2019-02-18T11:57:36.771Z,15.19
2019-02-18T11:58:36.731Z,15.25
2019-02-18T11:59:36.692Z,15.36
2019-02-18T12:00:36.654Z,15.49
2019-02-18T12:01:36.615Z,15.43
2019-02-18T12:02:36.579Z,15.35
2019-02-18T12:03:36.547Z,15.33
2019-02-18T12:04:36.511Z,15.36
2019-02-18T12:05:36.554Z,15.33
2019-02-18T12:06:36.436Z,15.22
2019-02-18T12:07:36.399Z,15.24
2019-02-18T12:08:36.367Z,15.18
2019-02-18T12:09:36.333Z,15.33
2019-02-18T12:10:36.296Z,15.27
2019-02-18T12:11:38.374Z,15.28
2019-02-18T12:12:36.221Z,15.33
2019-02-18T12:13:36.182Z,15.37
2019-02-18T12:14:36.147Z,15.44
2019-02-18T12:15:36.110Z,15.61
2019-02-18T12:16:36.078Z,15.65
2019-02-18T12:17:36.044Z,15.62
2019-02-18T12:18:36.010Z,15.61
2019-02-18T12:19:35.968Z,15.68
2019-02-18T12:20:35.934Z,15.75
2019-02-18T12:21:35.894Z,15.67
2019-02-18T12:22:35.864Z,15.79
2019-02-18T12:23:35.824Z,15.65
2019-02-18T12:24:35.786Z,15.68
2019-02-18T12:25:35.748Z,15.70
2019-02-18T12:26:35.718Z,15.57
2019-02-18T12:27:35.682Z,15.65
2019-02-18T12:28:35.646Z,15.73
2019-02-18T12:29:35.611Z,15.65
2019-02-18T12:30:35.574Z,15.95
2019-02-18T12:31:35.601Z,15.90
2019-02-18T12:32:35.499Z,15.95
2019-02-18T12:33:35.461Z,15.92
2019-02-18T12:34:35.427Z,15.91
2019-02-18T12:35:35.391Z,15.88
2019-02-18T12:36:35.358Z,15.91
2019-02-18T12:37:35.327Z,15.90
2019-02-18T12:38:35.284Z,15.76
2019-02-18T12:39:35.248Z,15.68
2019-02-18T12:40:35.213Z,15.65
2019-02-18T12:41:35.180Z,15.67
2019-02-18T12:42:35.147Z,15.68
2019-02-18T12:43:35.106Z,15.57
2019-02-18T12:44:35.078Z,15.59
2019-02-18T12:45:35.035Z,15.59
2019-02-18T12:46:35.001Z,15.68
2019-02-18T12:47:34.960Z,15.64
2019-02-18T12:48:35.344Z,15.73
2019-02-18T12:49:34.906Z,15.75
2019-02-18T12:50:34.858Z,15.72
2019-02-18T12:51:34.820Z,15.68
2019-02-18T12:52:34.800Z,15.64
2019-02-18T12:53:34.744Z,15.57
2019-02-18T12:54:34.719Z,15.57
2019-02-18T12:55:34.868Z,15.55
2019-02-18T12:56:34.643Z,15.59
2019-02-18T12:57:34.610Z,15.67
2019-02-18T12:58:34.564Z,15.70
2019-02-18T12:59:34.588Z,15.72
2019-02-18T13:00:34.496Z,15.70
2019-02-18T13:01:34.463Z,15.67
2019-02-18T13:02:43.770Z,15.68
2019-02-18T13:03:34.393Z,15.72
2019-02-18T13:04:34.351Z,15.61
2019-02-18T13:05:34.314Z,15.61
2019-02-18T13:06:34.279Z,15.70
2019-02-18T13:07:34.248Z,15.72
2019-02-18T13:08:34.212Z,15.65
2019-02-18T13:09:34.179Z,15.61
2019-02-18T13:10:34.850Z,15.76
2019-02-18T13:11:34.100Z,15.72
2019-02-18T13:12:34.067Z,15.64
2019-02-18T13:13:34.033Z,15.65
2019-02-18T13:14:33.997Z,15.61
2019-02-18T13:15:33.957Z,15.61
2019-02-18T13:16:33.920Z,15.58
2019-02-18T13:17:33.883Z,15.68
2019-02-18T13:18:33.847Z,15.59
2019-02-18T13:19:33.815Z,15.59
2019-02-18T13:20:33.779Z,15.58
2019-02-18T13:21:33.748Z,15.58
2019-02-18T13:22:33.710Z,15.62
2019-02-18T13:23:33.675Z,15.62
2019-02-18T13:24:33.635Z,15.58
2019-02-18T13:25:33.596Z,15.64
2019-02-18T13:26:33.567Z,15.62
2019-02-18T13:27:33.526Z,15.76
2019-02-18T13:28:33.491Z,15.80
2019-02-18T13:29:33.453Z,15.79
2019-02-18T13:30:33.419Z,15.84
2019-02-18T13:31:33.382Z,15.75
2019-02-18T13:32:33.349Z,15.84
2019-02-18T13:33:33.315Z,15.84
2019-02-18T13:34:33.280Z,15.82
2019-02-18T13:35:33.240Z,15.77
2019-02-18T13:36:33.204Z,15.91
2019-02-18T13:37:33.167Z,15.82